Time;durP1;ratioP1;P1;durP2;ratioP2;P2;SDS_P1;SDS_P2;PMS_P1;PMS_P2;Temp;Humidity;BMP_temperature;BMP_pressure;BME280_temperature;BME280_humidity;BME280_pressure;Samples;Min_cycle;Max_cycle;Signal;HPM_P1;HPM_P2
2022/10/24 00:02:17;;;;;;;6.75;6.05;;;;;;;16.60;54.73;102150.36;1706126;82;21121;-52
2022/10/24 00:04:44;;;;;;;7.67;6.00;;;;;;;16.61;54.67;102149.47;1705279;82;20998;-50
2022/10/24 00:07:11;;;;;;;8.23;5.85;;;;;;;16.60;54.65;102155.61;1702799;82;21070;-50
2022/10/24 00:09:38;;;;;;;7.15;6.45;;;;;;;16.60;54.67;102151.67;1703265;82;20991;-52
2022/10/24 00:12:05;;;;;;;6.75;6.05;;;;;;;16.60;54.68;102152.98;1703543;82;21003;-51
2022/10/24 00:14:32;;;;;;;6.47;5.70;;;;;;;16.59;54.53;102149.48;1702961;82;21030;-53
2022/10/24 00:17:00;;;;;;;6.10;5.55;;;;;;;16.57;54.47;102139.46;1704673;82;21023;-54
2022/10/24 00:19:27;;;;;;;5.95;5.35;;;;;;;16.57;54.35;102143.88;1706175;82;21522;-50
2022/10/24 00:21:53;;;;;;;6.60;6.03;;;;;;;16.56;54.21;102139.06;1706198;82;21081;-52
2022/10/24 00:24:24;;;;;;;7.33;5.72;;;;;;;16.56;54.21;102132.94;1703504;82;21057;-53
2022/10/24 00:26:51;;;;;;;7.20;5.67;;;;;;;16.55;54.20;102131.23;1705004;82;21057;-50
2022/10/24 00:29:17;;;;;;;6.17;5.67;;;;;;;16.55;54.22;102131.23;1705282;83;21078;-51
2022/10/24 00:31:44;;;;;;;6.65;5.95;;;;;;;16.53;54.33;102131.69;1706381;82;21037;-50
2022/10/24 00:34:10;;;;;;;6.50;5.83;;;;;;;16.51;54.33;102131.73;1706131;82;21023;-51
2022/10/24 00:36:39;;;;;;;6.28;5.67;;;;;;;16.52;54.26;102140.48;1703609;82;21039;-55
2022/10/24 00:39:05;;;;;;;6.35;5.75;;;;;;;16.51;54.33;102142.69;1703327;82;21035;-50
2022/10/24 00:41:36;;;;;;;6.40;5.70;;;;;;;16.51;54.28;102145.31;1702893;82;20991;-52
2022/10/24 00:44:21;;;;;;;6.28;5.67;;;;;;;16.50;54.33;102146.23;1642176;86;21074;-56
2022/10/24 00:46:57;;;;;;;5.80;5.20;;;;;;;16.47;54.34;102147.12;1624314;87;21084;-54
2022/10/24 00:49:53;;;;;;;6.12;5.50;;;;;;;16.46;54.47;102144.55;1624119;87;21062;-50
2022/10/24 00:52:25;;;;;;;6.72;6.10;;;;;;;16.46;54.43;102149.80;1594121;90;21592;-56
2022/10/24 00:54:53;;;;;;;6.17;5.67;;;;;;;16.46;54.42;102151.11;1592859;90;21054;-52
2022/10/24 00:57:28;;;;;;;6.65;5.85;;;;;;;16.45;54.36;102144.11;1592972;90;21078;-51
2022/10/24 00:59:58;;;;;;;6.03;5.42;;;;;;;16.44;54.53;102141.09;1558306;90;21073;-53
2022/10/24 01:02:25;;;;;;;6.40;5.40;;;;;;;16.44;54.54;102143.28;1573824;91;21057;-51
2022/10/24 01:04:53;;;;;;;6.20;5.25;;;;;;;16.44;54.51;102138.02;1565469;91;21101;-53
2022/10/24 01:07:32;;;;;;;5.87;5.28;;;;;;;16.43;54.46;102139.34;1574692;90;21070;-51
2022/10/24 01:10:34;;;;;;;5.28;4.83;;;;;;;16.44;54.44;102142.41;1557602;91;21538;-52
2022/10/24 01:13:44;;;;;;;5.25;4.70;;;;;;;16.43;54.41;102136.72;1563732;90;21535;-51
2022/10/24 01:16:16;;;;;;;5.70;5.12;;;;;;;16.42;54.44;102135.02;1557528;92;21121;-51
2022/10/24 01:19:12;;;;;;;5.87;5.25;;;;;;;16.39;54.35;102127.19;1552946;92;21112;-53
2022/10/24 01:22:03;;;;;;;6.08;5.45;;;;;;;16.37;54.38;102126.36;1515833;93;21576;-51
2022/10/24 01:24:58;;;;;;;5.60;5.10;;;;;;;16.35;54.44;102121.59;1524835;93;21170;-52
2022/10/24 01:27:45;;;;;;;6.37;5.17;;;;;;;16.34;54.48;102123.83;1524691;93;21133;-54
2022/10/24 01:30:13;;;;;;;5.50;5.00;;;;;;;16.32;54.40;102124.31;1534907;92;22262;-51
2022/10/24 01:32:54;;;;;;;7.17;5.65;;;;;;;16.30;54.37;102123.88;1538322;92;21093;-51
2022/10/24 01:35:50;;;;;;;5.47;4.97;;;;;;;16.28;54.39;102125.69;1514143;93;21101;-53
2022/10/24 01:38:34;;;;;;;5.35;4.85;;;;;;;16.26;54.49;102132.73;1479096;96;21121;-51
2022/10/24 01:41:11;;;;;;;6.10;5.50;;;;;;;16.25;54.43;102129.71;1470259;96;21075;-51
2022/10/24 01:43:52;;;;;;;7.97;5.53;;;;;;;16.24;54.37;102136.29;1464475;96;21146;-51
2022/10/24 01:46:23;;;;;;;5.70;5.20;;;;;;;16.21;54.26;102139.88;1475018;97;21683;-51
2022/10/24 01:48:58;;;;;;;9.13;6.28;;;;;;;16.19;54.27;102151.30;1474139;97;21814;-54
2022/10/24 01:51:26;;;;;;;6.12;5.53;;;;;;;16.17;54.40;102155.73;1456401;97;21172;-51
2022/10/24 01:53:53;;;;;;;6.30;5.72;;;;;;;16.16;54.53;102156.61;1472930;97;21067;-52
2022/10/24 01:56:19;;;;;;;5.90;5.35;;;;;;;16.13;54.73;102151.45;1451947;96;21138;-58
2022/10/24 01:58:47;;;;;;;6.33;5.72;;;;;;;16.12;54.88;102154.52;1500507;94;21585;-50
2022/10/24 02:01:17;;;;;;;6.10;5.60;;;;;;;16.12;54.80;102154.52;1502888;94;21138;-53
2022/10/24 02:03:47;;;;;;;6.12;5.45;;;;;;;16.11;54.90;102155.43;1503015;94;21041;-51
2022/10/24 02:06:24;;;;;;;6.08;5.47;;;;;;;16.09;54.95;102155.87;1502396;94;21557;-50
2022/10/24 02:08:54;;;;;;;7.58;6.10;;;;;;;16.09;54.99;102155.87;1491830;94;21060;-50
2022/10/24 02:11:21;;;;;;;5.95;5.35;;;;;;;16.09;54.96;102159.81;1504543;94;21179;-50
2022/10/24 02:14:20;;;;;;;6.15;5.53;;;;;;;16.07;54.80;102164.23;1502966;94;21104;-55
2022/10/24 02:16:46;;;;;;;6.25;5.65;;;;;;;16.03;54.96;102164.37;1506436;94;21089;-56
2022/10/24 02:19:13;;;;;;;6.42;5.83;;;;;;;16.02;54.99;102164.81;1501231;95;21103;-52
2022/10/24 02:22:22;;;;;;;7.33;6.62;;;;;;;16.00;55.02;102169.23;1553101;91;21541;-54
2022/10/24 02:24:57;;;;;;;5.83;5.30;;;;;;;15.99;55.11;102171.90;1563675;91;21085;-51
2022/10/24 02:27:29;;;;;;;6.33;5.72;;;;;;;15.97;55.08;102169.28;1564674;90;21045;-51
2022/10/24 02:30:02;;;;;;;6.35;5.80;;;;;;;15.97;55.16;102171.91;1524027;93;21626;-53
2022/10/24 02:32:35;;;;;;;6.90;5.97;;;;;;;15.97;55.17;102171.91;1528206;93;21621;-52
2022/10/24 02:35:02;;;;;;;6.62;6.03;;;;;;;15.98;55.22;102168.40;1527881;93;21098;-52
2022/10/24 02:37:30;;;;;;;6.25;5.65;;;;;;;15.98;55.16;102173.65;1527868;93;21618;-54
2022/10/24 02:39:56;;;;;;;6.35;5.75;;;;;;;15.98;55.08;102171.02;1529789;93;21046;-50
2022/10/24 02:42:24;;;;;;;6.62;5.78;;;;;;;15.98;55.09;102174.09;1566697;88;21063;-51
2022/10/24 02:44:51;;;;;;;6.42;5.83;;;;;;;15.97;55.03;102173.22;1629904;87;22299;-50
2022/10/24 02:47:18;;;;;;;6.85;6.15;;;;;;;15.98;54.96;102180.21;1629733;87;21105;-52
2022/10/24 02:49:45;;;;;;;6.92;6.22;;;;;;;15.97;55.07;102181.09;1629985;87;21045;-52
2022/10/24 02:52:12;;;;;;;6.83;6.22;;;;;;;15.96;55.04;102187.26;1629782;87;21577;-51
2022/10/24 02:54:39;;;;;;;7.25;6.55;;;;;;;15.97;55.11;102184.20;1629766;87;21072;-50
2022/10/24 02:57:05;;;;;;;10.03;6.35;;;;;;;15.98;55.15;102188.53;1599755;89;21074;-51
2022/10/24 02:59:32;;;;;;;6.58;5.97;;;;;;;15.95;55.18;102186.83;1577032;90;21082;-50
2022/10/24 03:02:00;;;;;;;7.35;6.25;;;;;;;15.95;55.20;102191.23;1607537;88;21132;-54
2022/10/24 03:04:28;;;;;;;6.92;6.22;;;;;;;15.91;55.36;102189.10;1600838;88;21069;-52
2022/10/24 03:06:54;;;;;;;6.70;5.95;;;;;;;15.90;55.33;102188.70;1607694;88;21057;-50
2022/10/24 03:09:21;;;;;;;7.30;6.50;;;;;;;15.92;55.33;102186.91;1607425;88;21065;-53
2022/10/24 03:11:49;;;;;;;6.72;6.12;;;;;;;15.92;55.23;102185.59;1607423;88;21201;-53
2022/10/24 03:14:16;;;;;;;6.75;6.15;;;;;;;15.92;55.14;102188.22;1607718;88;21114;-50
2022/10/24 03:16:43;;;;;;;6.83;6.00;;;;;;;15.94;55.11;102194.75;1570347;89;21034;-51
2022/10/24 03:19:11;;;;;;;6.97;6.20;;;;;;;15.94;55.19;102201.31;1581234;89;21619;-50
2022/10/24 03:21:39;;;;;;;7.15;6.45;;;;;;;15.94;55.16;102194.75;1587547;89;21560;-53
2022/10/24 03:24:07;;;;;;;7.20;5.78;;;;;;;15.93;55.15;102195.66;1580904;89;21530;-50
2022/10/24 03:26:33;;;;;;;7.15;6.45;;;;;;;15.92;55.16;102198.72;1615139;84;21479;-55
2022/10/24 03:29:00;;;;;;;7.50;6.55;;;;;;;15.92;55.14;102201.34;1657479;86;21066;-51
2022/10/24 03:31:27;;;;;;;8.30;6.87;;;;;;;15.90;55.11;102192.64;1675597;84;21034;-51
2022/10/24 03:33:54;;;;;;;7.15;6.55;;;;;;;15.90;55.06;102199.20;1703166;82;21042;-51
2022/10/24 03:36:21;;;;;;;7.72;6.92;;;;;;;15.90;55.07;102203.58;1703760;82;21036;-50
2022/10/24 03:38:48;;;;;;;7.65;6.72;;;;;;;15.90;55.07;102197.02;1706372;82;21030;-52
2022/10/24 03:41:15;;;;;;;6.85;6.25;;;;;;;15.88;54.95;102198.38;1706237;82;21070;-49
2022/10/24 03:43:42;;;;;;;6.67;6.08;;;;;;;15.89;54.97;102196.63;1704394;82;21549;-52
2022/10/24 03:46:08;;;;;;;7.25;6.62;;;;;;;15.88;54.93;102198.38;1704690;82;21058;-52
2022/10/24 03:48:35;;;;;;;6.85;6.25;;;;;;;15.87;54.88;102186.13;1705130;83;21022;-51
2022/10/24 03:51:02;;;;;;;7.17;6.53;;;;;;;15.88;54.84;102191.81;1706468;82;21023;-51
2022/10/24 03:53:29;;;;;;;7.05;6.35;;;;;;;15.88;54.73;102194.88;1693794;82;21477;-52
2022/10/24 03:55:56;;;;;;;7.35;6.37;;;;;;;15.86;54.67;102194.91;1704122;82;21079;-53
2022/10/24 03:58:23;;;;;;;8.60;7.05;;;;;;;15.81;54.72;102196.75;1704742;82;21046;-53
2022/10/24 04:00:50;;;;;;;7.62;6.83;;;;;;;15.78;54.81;102197.27;1707069;83;21045;-51
2022/10/24 04:03:16;;;;;;;7.55;6.75;;;;;;;15.74;54.83;102192.55;1708593;82;21522;-54
2022/10/24 04:05:43;;;;;;;7.90;7.05;;;;;;;15.71;54.83;102192.59;1708441;82;21074;-54
2022/10/24 04:08:11;;;;;;;7.15;6.45;;;;;;;15.68;54.93;102191.36;1706033;82;20983;-50
2022/10/24 04:10:38;;;;;;;7.72;6.92;;;;;;;15.68;54.92;102202.30;1705462;82;21506;-51
2022/10/24 04:13:04;;;;;;;7.70;6.90;;;;;;;15.65;55.02;102191.41;1705644;82;21034;-51
2022/10/24 04:15:33;;;;;;;8.68;7.22;;;;;;;15.67;55.09;102201.42;1705379;82;21026;-54
2022/10/24 04:17:59;;;;;;;9.15;6.47;;;;;;;15.67;55.11;102198.80;1704134;82;21051;-56
2022/10/24 04:20:26;;;;;;;9.35;7.15;;;;;;;15.68;55.09;102197.05;1707972;82;21034;-50
2022/10/24 04:22:52;;;;;;;7.97;6.67;;;;;;;15.69;55.05;102204.88;1704191;83;21109;-51
2022/10/24 04:25:19;;;;;;;7.80;6.62;;;;;;;15.69;55.06;102204.88;1702908;82;21078;-51
2022/10/24 04:27:46;;;;;;;8.18;7.37;;;;;;;15.68;55.06;102207.10;1705475;82;21007;-56
2022/10/24 04:30:13;;;;;;;7.72;6.97;;;;;;;15.67;55.08;102209.30;1705567;82;21515;-51
2022/10/24 04:32:40;;;;;;;8.55;7.37;;;;;;;15.67;55.28;102204.05;1705181;82;21038;-51
2022/10/24 04:35:08;;;;;;;8.60;7.58;;;;;;;15.67;55.33;102202.73;1707433;82;21050;-50
2022/10/24 04:37:36;;;;;;;8.60;7.35;;;;;;;15.68;55.37;102204.92;1708524;82;21561;-50
2022/10/24 04:40:04;;;;;;;8.40;7.60;;;;;;;15.68;55.25;102203.17;1706395;82;21066;-51
2022/10/24 04:42:31;;;;;;;8.03;7.22;;;;;;;15.68;55.39;102207.55;1705102;82;21022;-51
2022/10/24 04:44:57;;;;;;;8.68;7.80;;;;;;;15.68;55.45;102208.42;1706608;83;21073;-55
2022/10/24 04:47:24;;;;;;;10.00;7.40;;;;;;;15.70;55.45;102214.94;1707999;82;21523;-53
2022/10/24 04:49:52;;;;;;;7.97;7.17;;;;;;;15.72;55.45;102217.08;1707099;82;21494;-50
2022/10/24 04:52:18;;;;;;;8.28;7.33;;;;;;;15.71;55.47;102217.52;1697839;82;21107;-52
2022/10/24 04:54:46;;;;;;;8.28;7.47;;;;;;;15.73;55.44;102217.48;1701621;82;21049;-53
2022/10/24 04:57:13;;;;;;;7.53;6.75;;;;;;;15.73;55.47;102213.55;1708136;82;21022;-52
2022/10/24 04:59:40;;;;;;;9.18;7.87;;;;;;;15.72;55.46;102215.33;1706173;82;21034;-51
2022/10/24 05:02:07;;;;;;;8.63;7.72;;;;;;;15.71;55.57;102216.21;1705843;82;21058;-52
2022/10/24 05:04:34;;;;;;;9.63;8.23;;;;;;;15.68;55.73;102211.04;1706663;83;21046;-52
2022/10/24 05:07:01;;;;;;;8.50;7.37;;;;;;;15.64;55.84;102214.59;1708034;83;21038;-57
2022/10/24 05:09:27;;;;;;;14.33;8.65;;;;;;;15.64;55.98;102214.59;1708434;82;21034;-52
2022/10/24 05:11:56;;;;;;;8.95;7.85;;;;;;;15.63;56.18;102207.62;1707044;82;21526;-54
2022/10/24 05:14:24;;;;;;;8.08;7.15;;;;;;;15.65;56.21;102215.46;1600772;89;21131;-53
2022/10/24 05:16:50;;;;;;;8.58;7.55;;;;;;;15.65;56.34;102217.64;1601104;89;21012;-51
2022/10/24 05:19:18;;;;;;;8.98;7.72;;;;;;;15.66;56.49;102218.05;1600928;89;21084;-53
2022/10/24 05:21:47;;;;;;;9.38;8.35;;;;;;;15.68;56.66;102214.98;1601155;89;21121;-52
2022/10/24 05:24:13;;;;;;;8.18;7.37;;;;;;;15.72;56.73;102204.83;1600927;89;21088;-52
2022/10/24 05:26:40;;;;;;;8.30;7.50;;;;;;;15.77;56.77;102202.09;1616227;89;21033;-52
2022/10/24 05:29:07;;;;;;;7.55;6.85;;;;;;;15.82;56.77;102203.75;1616436;87;21085;-51
2022/10/24 05:31:33;;;;;;;9.25;7.75;;;;;;;15.87;56.81;102214.13;1616132;89;21077;-54
2022/10/24 05:34:00;;;;;;;8.03;6.58;;;;;;;15.91;56.80;102216.66;1616311;89;21025;-52
2022/10/24 05:36:26;;;;;;;7.78;6.97;;;;;;;15.96;56.86;102221.83;1616299;89;21105;-51
2022/10/24 05:38:53;;;;;;;8.35;7.20;;;;;;;15.99;56.93;102222.62;1601094;89;21103;-55
2022/10/24 05:41:20;;;;;;;8.78;7.75;;;;;;;16.03;56.99;102220.34;1616298;89;21110;-54
2022/10/24 05:43:46;;;;;;;8.18;7.37;;;;;;;16.08;57.11;102227.69;1616171;89;21098;-51
2022/10/24 05:46:15;;;;;;;8.65;7.53;;;;;;;16.14;57.13;102234.56;1605588;89;21502;-51
2022/10/24 05:48:41;;;;;;;10.10;7.55;;;;;;;16.18;57.27;102244.98;1616250;87;21085;-52
2022/10/24 05:51:08;;;;;;;9.20;8.25;;;;;;;16.25;57.37;102238.71;1616258;89;21053;-52
2022/10/24 05:53:34;;;;;;;9.18;8.28;;;;;;;16.31;57.31;102241.64;1601148;90;21590;-51
2022/10/24 05:56:01;;;;;;;9.40;8.50;;;;;;;16.37;57.14;102232.75;1601207;90;21112;-52
2022/10/24 05:58:27;;;;;;;9.25;8.35;;;;;;;16.44;56.67;102235.23;1600897;89;21128;-52
2022/10/24 06:00:55;;;;;;;9.08;7.72;;;;;;;16.49;56.35;102244.30;1597896;89;21280;-52
2022/10/24 06:03:21;;;;;;;8.65;7.85;;;;;;;16.54;55.98;102233.28;1620301;87;21558;-52
2022/10/24 06:05:50;;;;;;;8.58;7.78;;;;;;;16.59;55.74;102248.51;1614902;88;21564;-56
2022/10/24 06:08:17;;;;;;;8.65;7.85;;;;;;;16.62;55.54;102235.28;1620759;88;21077;-51
2022/10/24 06:10:48;;;;;;;8.98;8.08;;;;;;;16.65;55.37;102245.73;1629082;87;21049;-50
2022/10/24 06:13:16;;;;;;;8.00;7.20;;;;;;;16.66;55.45;102252.27;1664052;84;21110;-51
2022/10/24 06:15:43;;;;;;;8.43;7.62;;;;;;;16.69;55.39;102250.86;1658595;84;21555;-52
2022/10/24 06:18:11;;;;;;;9.15;7.45;;;;;;;16.71;55.48;102237.70;1657146;84;21070;-52
2022/10/24 06:20:39;;;;;;;10.48;7.60;;;;;;;16.74;55.40;102252.08;1646501;84;21066;-52
2022/10/24 06:23:05;;;;;;;11.35;7.58;;;;;;;16.77;55.34;102252.02;1658496;86;21062;-53
2022/10/24 06:25:33;;;;;;;8.58;7.78;;;;;;;16.82;55.45;102260.64;1659656;84;21542;-53
2022/10/24 06:28:00;;;;;;;9.45;8.55;;;;;;;16.85;55.45;102257.95;1659417;84;21091;-54
2022/10/24 06:30:27;;;;;;;9.93;7.80;;;;;;;16.92;55.33;102255.58;1657478;84;21055;-57
2022/10/24 06:32:53;;;;;;;8.83;7.80;;;;;;;16.99;55.22;102259.80;1656317;84;21059;-53
2022/10/24 06:35:20;;;;;;;8.35;7.55;;;;;;;17.05;55.24;102260.95;1656433;84;21528;-52
2022/10/24 06:37:48;;;;;;;7.78;7.08;;;;;;;17.13;55.21;102252.42;1656449;84;21507;-52
2022/10/24 06:40:16;;;;;;;8.58;7.70;;;;;;;17.19;54.94;102256.22;1656912;84;21094;-55
2022/10/24 06:42:43;;;;;;;8.93;8.03;;;;;;;17.25;54.96;102246.84;1658829;84;21055;-56
2022/10/24 06:45:11;;;;;;;9.03;7.92;;;;;;;17.30;54.87;102247.61;1655526;86;21111;-51
2022/10/24 06:47:38;;;;;;;10.88;8.38;;;;;;;17.34;54.90;102254.52;1659278;86;21512;-53
2022/10/24 06:50:06;;;;;;;9.20;8.30;;;;;;;17.38;54.79;102253.53;1659306;84;21028;-52
2022/10/24 06:52:33;;;;;;;9.85;7.62;;;;;;;17.43;54.83;102248.16;1658756;84;21575;-53
2022/10/24 06:55:01;;;;;;;8.38;7.33;;;;;;;17.47;54.80;102255.94;1656495;84;21492;-51
2022/10/24 06:57:28;;;;;;;8.55;7.80;;;;;;;17.53;54.86;102257.13;1656588;84;21145;-52
2022/10/24 06:59:54;;;;;;;10.23;7.83;;;;;;;17.58;54.87;102258.28;1655848;84;21035;-52
2022/10/24 07:02:21;;;;;;;8.85;7.78;;;;;;;17.61;54.75;102259.09;1654874;85;21066;-51
2022/10/24 07:04:50;;;;;;;8.63;7.72;;;;;;;17.63;54.83;102255.97;1655400;84;21039;-54
2022/10/24 07:07:19;;;;;;;7.90;7.12;;;;;;;17.65;54.96;102258.11;1708116;82;20986;-52
2022/10/24 07:09:53;;;;;;;10.23;7.80;;;;;;;17.70;55.08;102258.82;1707133;82;21057;-50
2022/10/24 07:12:21;;;;;;;8.70;7.83;;;;;;;17.75;55.07;102252.12;1707124;82;20951;-50
2022/10/24 07:14:48;;;;;;;9.33;7.78;;;;;;;17.81;55.09;102251.95;1704329;83;21491;-53
2022/10/24 07:17:16;;;;;;;8.45;7.65;;;;;;;17.88;54.94;102255.70;1706821;82;21024;-52
2022/10/24 07:19:42;;;;;;;7.80;7.10;;;;;;;17.95;54.88;102256.37;1705523;82;21019;-50
2022/10/24 07:22:09;;;;;;;9.08;7.35;;;;;;;18.03;54.77;102260.13;1704783;82;21046;-50
2022/10/24 07:24:36;;;;;;;8.25;7.45;;;;;;;18.09;54.73;102255.99;1699957;82;21022;-51
2022/10/24 07:27:03;;;;;;;9.35;7.62;;;;;;;18.15;54.68;102256.69;1706047;82;21054;-52
2022/10/24 07:29:31;;;;;;;8.08;7.28;;;;;;;18.22;54.48;102262.61;1707463;83;21550;-54
2022/10/24 07:31:58;;;;;;;8.05;7.20;;;;;;;18.27;54.46;102258.08;1702743;83;21054;-54
2022/10/24 07:34:25;;;;;;;9.68;7.40;;;;;;;18.33;54.33;102263.17;1710369;82;21505;-51
2022/10/24 07:36:51;;;;;;;7.85;7.12;;;;;;;18.39;54.33;102249.80;1706749;82;21558;-50
2022/10/24 07:39:18;;;;;;;7.72;6.90;;;;;;;18.43;54.38;102251.44;1705119;82;21042;-56
2022/10/24 07:41:44;;;;;;;8.03;7.22;;;;;;;18.49;54.43;102255.23;1705037;82;21037;-52
2022/10/24 07:44:11;;;;;;;9.23;7.87;;;;;;;18.55;54.47;102251.95;1705872;82;21515;-49
2022/10/24 07:46:40;;;;;;;8.58;7.33;;;;;;;18.64;54.40;102256.09;1705567;82;21041;-51
2022/10/24 07:49:08;;;;;;;7.95;7.15;;;;;;;18.71;54.29;102249.72;1706898;82;21107;-50
2022/10/24 07:51:36;;;;;;;7.95;6.97;;;;;;;18.77;54.18;102246.89;1703950;83;21006;-50
2022/10/24 07:54:03;;;;;;;9.55;7.92;;;;;;;18.85;54.01;102246.19;1699478;82;21082;-54
2022/10/24 07:56:30;;;;;;;8.05;7.25;;;;;;;18.92;53.90;102249.01;1705376;82;21455;-51
2022/10/24 07:58:57;;;;;;;8.48;7.67;;;;;;;18.98;53.77;102243.53;1706066;82;21069;-55
2022/10/24 08:01:25;;;;;;;8.55;7.30;;;;;;;19.07;53.69;102250.28;1707534;82;21066;-52
2022/10/24 08:03:52;;;;;;;7.78;7.00;;;;;;;19.13;53.56;102253.59;1708304;82;21526;-52
2022/10/24 08:06:23;;;;;;;8.65;7.85;;;;;;;19.20;53.43;102259.08;1706176;82;21467;-51
2022/10/24 08:08:49;;;;;;;9.38;7.45;;;;;;;19.25;53.48;102253.16;1706840;82;21010;-52
2022/10/24 08:11:23;;;;;;;10.45;8.30;;;;;;;19.31;53.41;102252.09;1707825;83;21042;-53
2022/10/24 08:13:52;;;;;;;8.33;7.40;;;;;;;19.36;53.33;102252.39;1705891;83;21006;-52
2022/10/24 08:16:20;;;;;;;8.10;7.30;;;;;;;19.43;53.23;102246.45;1708961;82;21015;-52
2022/10/24 08:18:47;;;;;;;8.90;8.00;;;;;;;19.49;53.09;102247.06;1700835;82;21502;-52
2022/10/24 08:21:15;;;;;;;8.63;7.75;;;;;;;19.57;53.03;102245.95;1705216;82;21566;-52
2022/10/24 08:23:46;;;;;;;8.93;7.50;;;;;;;19.64;52.89;102244.83;1701854;82;21065;-52
2022/10/24 08:26:15;;;;;;;8.43;7.60;;;;;;;19.70;52.65;102245.93;1707356;83;21032;-50
2022/10/24 08:28:42;;;;;;;10.45;7.80;;;;;;;19.75;52.48;102243.52;1708375;82;21023;-50
2022/10/24 08:31:15;;;;;;;8.70;7.72;;;;;;;19.82;52.36;102244.16;1704319;82;21074;-51
2022/10/24 08:33:42;;;;;;;9.18;8.10;;;;;;;19.87;52.19;102242.19;1601162;89;21031;-50
2022/10/24 08:36:25;;;;;;;8.18;7.37;;;;;;;19.91;51.93;102244.67;1616041;89;21681;-52
2022/10/24 08:38:51;;;;;;;7.53;6.65;;;;;;;19.95;51.71;102238.80;1616442;89;21068;-50
2022/10/24 08:41:37;;;;;;;9.58;7.00;;;;;;;19.98;51.39;102243.55;1616096;89;21070;-50
2022/10/24 08:44:24;;;;;;;7.55;6.87;;;;;;;20.01;51.48;102237.29;1616600;89;21053;-52
2022/10/24 08:47:03;;;;;;;7.00;6.28;;;;;;;20.07;51.16;102245.82;1616297;89;21554;-58
2022/10/24 08:49:41;;;;;;;6.65;6.05;;;;;;;20.11;50.90;102249.23;1612694;89;21049;-50
2022/10/24 08:52:32;;;;;;;6.67;6.03;;;;;;;20.18;50.79;102248.06;1608411;89;21101;-50
2022/10/24 08:55:02;;;;;;;7.90;6.22;;;;;;;20.24;50.52;102245.22;1601105;90;21608;-54
2022/10/24 08:57:31;;;;;;;8.85;6.50;;;;;;;20.32;50.22;102247.11;1616243;89;21148;-52
2022/10/24 09:00:02;;;;;;;7.22;5.97;;;;;;;20.38;50.21;102242.91;1616739;88;20998;-50
2022/10/24 09:02:32;;;;;;;7.45;5.50;;;;;;;20.45;50.12;102243.53;1595332;89;21098;-52
2022/10/24 09:05:19;;;;;;;7.65;5.70;;;;;;;20.50;49.69;102243.77;1595275;90;21580;-52
2022/10/24 09:07:46;;;;;;;5.87;5.30;;;;;;;20.54;49.74;102246.70;1592011;90;21070;-55
2022/10/24 09:10:17;;;;;;;6.05;5.20;;;;;;;20.62;49.66;102247.25;1575533;91;21036;-52
2022/10/24 09:12:46;;;;;;;5.58;5.08;;;;;;;20.69;49.38;102248.70;1595071;90;21010;-52
2022/10/24 09:15:23;;;;;;;5.28;4.78;;;;;;;20.78;49.14;102247.48;1580296;91;21024;-52
2022/10/24 09:17:51;;;;;;;5.87;4.97;;;;;;;20.85;49.02;102243.22;1583913;90;21530;-50
2022/10/24 09:20:24;;;;;;;5.03;4.50;;;;;;;20.93;48.72;102235.83;1580392;91;21518;-52
2022/10/24 09:22:53;;;;;;;4.50;4.10;;;;;;;20.99;48.44;102237.35;1502463;93;21185;-51
2022/10/24 09:25:30;;;;;;;5.20;3.72;;;;;;;21.04;48.07;102234.94;1506195;93;21122;-58
2022/10/24 09:27:57;;;;;;;5.10;4.20;;;;;;;21.10;47.49;102238.27;1507017;95;21085;-52
2022/10/24 09:30:26;;;;;;;4.40;3.92;;;;;;;21.13;47.38;102234.15;1513511;93;21414;-52
2022/10/24 09:32:57;;;;;;;4.58;4.17;;;;;;;21.15;47.12;102233.63;1526392;94;21064;-52
2022/10/24 09:35:28;;;;;;;3.85;3.55;;;;;;;21.16;46.49;102226.96;1526739;94;21112;-50
2022/10/24 09:37:58;;;;;;;4.75;4.22;;;;;;;21.19;46.29;102231.24;1526233;94;21087;-51
2022/10/24 09:40:28;;;;;;;4.45;4.05;;;;;;;21.19;46.32;102225.49;1507542;94;21096;-50
2022/10/24 09:43:17;;;;;;;;;;;;;;;21.21;46.39;102229.39;1527182;94;21084;-48
2022/10/24 09:45:51;;;;;;;6.33;3.52;;;;;;;21.24;46.48;102226.63;1526453;94;20175;-52
2022/10/24 09:48:31;;;;;;;4.42;3.58;;;;;;;21.25;46.37;102228.33;1449210;99;21173;-53
2022/10/24 09:50:58;;;;;;;4.37;3.98;;;;;;;21.27;46.25;102225.19;1448421;99;21098;-50
2022/10/24 09:53:37;;;;;;;4.78;3.60;;;;;;;21.32;46.24;102229.80;1452704;99;21180;-51
2022/10/24 09:56:11;;;;;;;4.10;3.72;;;;;;;21.37;45.83;102230.48;1435181;99;21114;-56
2022/10/24 09:58:37;;;;;;;5.28;3.70;;;;;;;21.41;45.91;102230.25;1380665;102;21242;-54
2022/10/24 10:01:18;;;;;;;4.75;3.95;;;;;;;21.44;45.92;102226.63;1396510;101;21186;-50
2022/10/24 10:04:00;;;;;;;4.10;3.75;;;;;;;21.49;45.93;102226.84;1396439;101;21171;-52
2022/10/24 10:06:27;;;;;;;4.78;3.92;;;;;;;21.59;45.88;102228.61;1334519;106;21173;-50
2022/10/24 10:08:55;;;;;;;5.00;4.47;;;;;;;21.63;45.82;102219.14;1372643;103;21075;-54
2022/10/24 10:11:30;;;;;;;5.40;4.90;;;;;;;21.69;45.78;102227.27;1372820;103;21094;-54
2022/10/24 10:14:00;;;;;;;7.00;5.90;;;;;;;21.73;46.76;102223.09;1372916;104;21139;-50
2022/10/24 10:16:32;;;;;;;6.62;6.03;;;;;;;21.75;47.50;102226.99;1374940;102;21198;-54
2022/10/24 10:19:08;;;;;;;7.03;6.08;;;;;;;21.76;48.25;102222.10;1373572;103;21324;-53
2022/10/24 10:22:01;;;;;;;11.45;6.28;;;;;;;21.76;48.66;102222.94;1342354;105;21673;-51
2022/10/24 10:24:38;;;;;;;7.58;5.90;;;;;;;21.76;48.85;102222.10;1342180;105;21131;-52
2022/10/24 10:27:34;;;;;;;6.80;6.20;;;;;;;21.74;48.99;102223.97;1356134;104;21121;-52
2022/10/24 10:30:16;;;;;;;6.60;6.00;;;;;;;21.75;49.47;102215.06;1375941;103;21231;-51
2022/10/24 10:33:00;;;;;;;7.53;6.08;;;;;;;21.79;49.90;102220.63;1376379;103;21138;-52
2022/10/24 10:35:39;;;;;;;7.20;5.62;;;;;;;21.85;50.08;102220.37;1376464;103;21162;-51
2022/10/24 10:38:11;;;;;;;7.70;6.30;;;;;;;21.90;49.83;102215.74;1387349;102;21137;-53
2022/10/24 10:40:44;;;;;;;7.67;6.75;;;;;;;21.96;49.94;102216.78;1332629;108;21251;-52
2022/10/24 10:43:23;;;;;;;6.95;6.17;;;;;;;22.02;50.09;102211.20;1342307;105;21222;-54
2022/10/24 10:46:28;;;;;;;7.40;6.70;;;;;;;22.09;50.19;102211.78;1320642;108;21303;-57
2022/10/24 10:49:22;;;;;;;7.33;6.37;;;;;;;22.16;50.20;102211.88;1324223;108;21223;-52
2022/10/24 10:52:23;;;;;;;6.50;5.78;;;;;;;22.22;50.08;102203.17;1353732;104;21117;-52
2022/10/24 10:55:19;;;;;;;7.70;6.67;;;;;;;22.29;50.14;102196.66;1391165;101;21163;-50
2022/10/24 10:57:58;;;;;;;7.42;6.55;;;;;;;22.36;49.94;102200.72;1409392;102;21199;-54
2022/10/24 11:00:32;;;;;;;10.85;7.58;;;;;;;22.40;49.91;102195.66;1460217;98;21206;-53
2022/10/24 11:03:26;;;;;;;9.30;7.75;;;;;;;22.41;49.97;102196.06;1469019;98;21146;-52
2022/10/24 11:06:26;;;;;;;10.10;6.60;;;;;;;22.40;50.05;102193.50;1473680;96;21111;-52
2022/10/24 11:09:07;;;;;;;6.97;6.25;;;;;;;22.37;50.23;102187.86;1401127;101;21175;-52
2022/10/24 11:11:39;;;;;;;6.87;6.20;;;;;;;22.36;50.13;102187.45;1401117;101;21648;-50
2022/10/24 11:14:30;;;;;;;8.20;6.08;;;;;;;22.33;50.15;102183.64;1401239;101;21169;-56
2022/10/24 11:17:02;;;;;;;6.92;6.22;;;;;;;22.33;49.96;102175.69;1396114;101;21128;-50
2022/10/24 11:19:39;;;;;;;9.23;6.10;;;;;;;22.34;49.88;102181.36;1368802;104;21636;-52
2022/10/24 11:22:06;;;;;;;8.53;5.87;;;;;;;22.36;49.93;102174.19;1373089;104;21157;-52
2022/10/24 11:24:42;;;;;;;7.50;6.70;;;;;;;22.40;49.70;102167.81;1371894;103;21167;-52
2022/10/24 11:27:15;;;;;;;7.95;5.25;;;;;;;22.41;49.62;102165.56;1373882;103;21212;-51
2022/10/24 11:29:57;;;;;;;;;;;;;;;22.43;49.17;102164.16;1395335;101;21187;-56
2022/10/24 11:32:47;;;;;;;7.42;6.10;;;;;;;22.44;49.00;102165.89;1392562;101;20209;-50
2022/10/24 11:35:31;;;;;;;6.33;5.72;;;;;;;22.42;49.22;102160.63;1408030;101;21123;-54
2022/10/24 11:38:17;;;;;;;6.80;5.58;;;;;;;22.41;49.47;102158.06;1413420;100;21150;-54
2022/10/24 11:40:45;;;;;;;6.90;6.15;;;;;;;22.39;49.79;102162.59;1406989;101;21626;-51
2022/10/24 11:43:29;;;;;;;7.15;6.22;;;;;;;22.35;50.04;102156.58;1437469;95;21109;-50
2022/10/24 11:46:08;;;;;;;6.90;5.97;;;;;;;22.32;50.26;102156.71;1536572;90;21063;-52